Time;durP1;ratioP1;P1;durP2;ratioP2;P2;SDS_P1;SDS_P2;PMS_P1;PMS_P2;Temp;Humidity;BMP_temperature;BMP_pressure;BME280_temperature;BME280_humidity;BME280_pressure;Samples;Min_cycle;Max_cycle;Signal;HPM_P1;HPM_P2
2021/08/10 00:00:49;;;;;;;6.68;2.45;;;;;;;12.50;57.13;101424.72;5003783;28;20025;-69
2021/08/10 00:03:15;;;;;;;8.63;2.72;;;;;;;12.51;57.07;101420.34;4995847;28;20280;-69
2021/08/10 00:05:47;;;;;;;6.50;2.95;;;;;;;12.45;57.45;101431.09;4995023;28;20026;-69
2021/08/10 00:08:14;;;;;;;7.95;2.97;;;;;;;12.43;57.32;101425.03;4993431;28;20029;-69
2021/08/10 00:10:39;;;;;;;4.43;3.08;;;;;;;12.37;57.61;101422.66;4997358;28;20121;-68
2021/08/10 00:13:04;;;;;;;5.18;2.70;;;;;;;12.26;58.18;101423.06;4998773;28;20120;-68
2021/08/10 00:15:32;;;;;;;5.13;2.75;;;;;;;12.37;57.94;101423.50;4994202;28;20102;-69
2021/08/10 00:17:58;;;;;;;6.85;2.60;;;;;;;12.46;57.33;101430.16;4999770;28;20041;-68
2021/08/10 00:20:23;;;;;;;3.75;2.85;;;;;;;12.43;57.52;101427.66;4993118;28;20050;-69
2021/08/10 00:22:51;;;;;;;3.80;1.70;;;;;;;12.44;57.53;101419.72;5008801;28;20113;-69
2021/08/10 00:25:17;;;;;;;10.00;3.17;;;;;;;12.32;57.21;101420.22;4993633;28;20415;-69
2021/08/10 00:27:43;;;;;;;7.97;3.00;;;;;;;12.36;57.53;101426.22;4997139;28;20029;-68
2021/08/10 00:30:09;;;;;;;3.72;2.50;;;;;;;12.38;57.32;101432.22;4991404;28;20034;-69
2021/08/10 00:32:34;;;;;;;4.80;2.83;;;;;;;12.40;57.58;101425.16;5003698;28;20034;-69
2021/08/10 00:35:00;;;;;;;4.45;2.50;;;;;;;12.23;57.86;101426.66;4994852;28;20403;-68
2021/08/10 00:37:25;;;;;;;4.97;2.42;;;;;;;12.42;57.44;101423.31;5001170;28;22438;-68
2021/08/10 00:39:51;;;;;;;6.38;3.25;;;;;;;12.25;58.05;101424.84;4995102;28;20053;-68
2021/08/10 00:42:17;;;;;;;4.63;2.78;;;;;;;12.37;57.40;101425.28;4982440;28;20099;-69
2021/08/10 00:44:45;;;;;;;4.60;2.53;;;;;;;12.34;57.21;101420.16;4994689;28;20300;-68
2021/08/10 00:47:13;;;;;;;4.28;2.95;;;;;;;12.35;57.66;101421.84;4991187;28;20084;-67
2021/08/10 00:49:39;;;;;;;4.00;2.30;;;;;;;12.32;57.65;101408.88;5009876;28;20534;-70
2021/08/10 00:52:04;;;;;;;5.43;2.38;;;;;;;12.29;57.67;101410.72;4990983;28;20081;-67
2021/08/10 00:54:32;;;;;;;5.40;2.83;;;;;;;12.29;57.65;101413.34;4993059;28;20034;-68
2021/08/10 00:56:58;;;;;;;7.85;2.45;;;;;;;12.35;57.61;101414.00;4993853;28;20030;-69
2021/08/10 00:59:31;;;;;;;7.78;3.00;;;;;;;12.32;57.30;101412.34;4975937;28;20068;-69
2021/08/10 01:01:59;;;;;;;4.55;2.17;;;;;;;12.29;57.26;101423.81;4978654;28;20403;-68
2021/08/10 01:04:25;;;;;;;9.48;2.70;;;;;;;12.29;57.09;101421.19;5009622;28;20100;-68
2021/08/10 01:07:00;;;;;;;6.13;3.22;;;;;;;12.26;57.53;101423.06;4993361;28;20419;-68
2021/08/10 01:09:48;;;;;;;4.93;2.72;;;;;;;12.20;57.49;101421.56;4995876;28;20045;-69
2021/08/10 01:12:30;;;;;;;3.85;2.42;;;;;;;12.06;58.57;101421.19;4993416;28;20133;-72
2021/08/10 01:15:15;;;;;;;4.22;2.85;;;;;;;12.22;58.07;101426.72;4999942;28;20030;-69
2021/08/10 01:17:47;;;;;;;3.88;2.80;;;;;;;12.32;57.23;101414.13;4995625;28;20034;-69
2021/08/10 01:20:43;;;;;;;3.35;2.35;;;;;;;12.29;57.24;101418.56;4990495;28;20031;-69
2021/08/10 01:23:12;;;;;;;4.07;2.53;;;;;;;12.28;57.26;101418.63;5002947;28;20083;-69
2021/08/10 01:25:41;;;;;;;5.07;2.40;;;;;;;12.12;58.04;101423.59;5001970;28;20495;-69
2021/08/10 01:28:26;;;;;;;8.20;2.88;;;;;;;12.20;57.50;101421.56;4991024;28;20032;-69
2021/08/10 01:31:07;;;;;;;5.53;2.05;;;;;;;12.20;57.81;101421.56;5010479;28;20049;-69
2021/08/10 01:33:43;;;;;;;4.32;2.58;;;;;;;12.20;57.63;101423.28;5007882;28;20464;-70
2021/08/10 01:36:12;;;;;;;6.18;3.17;;;;;;;12.19;57.61;101417.19;4991168;28;20100;-69
2021/08/10 01:38:46;;;;;;;5.25;2.63;;;;;;;12.19;57.74;101411.97;4991264;28;20037;-69
2021/08/10 01:41:13;;;;;;;3.92;2.05;;;;;;;12.21;57.26;101417.16;4990992;28;20054;-69
2021/08/10 01:43:41;;;;;;;6.43;4.22;;;;;;;12.17;57.53;101416.41;4992474;28;20484;-69
2021/08/10 01:46:08;;;;;;;5.90;2.78;;;;;;;12.18;57.61;101407.66;4985815;28;20062;-68
2021/08/10 01:48:38;;;;;;;8.07;3.13;;;;;;;12.16;57.60;101404.22;4999732;28;20042;-68
2021/08/10 01:51:07;;;;;;;8.50;3.63;;;;;;;12.23;57.48;101410.09;5000801;28;20035;-68
2021/08/10 01:53:35;;;;;;;4.95;3.08;;;;;;;12.29;57.15;101408.09;4998866;28;20093;-69
2021/08/10 01:56:01;;;;;;;5.88;2.72;;;;;;;12.18;57.37;101406.78;4992444;28;20026;-68
2021/08/10 01:58:36;;;;;;;6.55;3.85;;;;;;;12.25;57.40;101405.66;5000190;28;20459;-69
2021/08/10 02:01:02;;;;;;;3.35;2.08;;;;;;;12.26;57.32;101408.19;4978429;28;20053;-69
2021/08/10 02:03:30;;;;;;;3.72;2.47;;;;;;;12.24;57.13;101411.78;4988162;28;20088;-69
2021/08/10 02:06:05;;;;;;;6.05;2.97;;;;;;;12.20;57.30;101405.81;4996241;28;20022;-69
2021/08/10 02:08:34;;;;;;;4.55;3.17;;;;;;;12.22;57.39;101408.38;4991638;28;20081;-69
2021/08/10 02:11:01;;;;;;;5.45;2.28;;;;;;;12.25;57.47;101414.34;4994125;28;20029;-69
2021/08/10 02:13:29;;;;;;;3.67;2.67;;;;;;;12.24;57.54;101407.38;4997748;28;20114;-69
2021/08/10 02:15:57;;;;;;;4.10;2.40;;;;;;;12.22;57.37;101409.25;4978033;28;20092;-69
2021/08/10 02:18:25;;;;;;;5.10;3.20;;;;;;;12.19;57.28;101406.72;4988706;28;20038;-69
2021/08/10 02:21:05;;;;;;;5.28;2.83;;;;;;;12.24;57.22;101407.38;4992879;28;20032;-70
2021/08/10 02:23:33;;;;;;;;;;;;;;;12.29;57.09;101415.94;5006149;28;20026;-69
2021/08/10 02:26:01;;;;;;;5.90;3.03;;;;;;;12.29;57.11;101413.34;5009466;28;19921;-69
2021/08/10 02:28:29;;;;;;;5.10;3.13;;;;;;;12.23;57.17;101405.69;4995728;28;20121;-70
2021/08/10 02:31:00;;;;;;;5.82;2.50;;;;;;;12.14;57.69;101402.59;4991735;28;20546;-70
2021/08/10 02:33:32;;;;;;;7.47;3.13;;;;;;;12.18;57.52;101399.78;5008561;28;20037;-69
2021/08/10 02:36:00;;;;;;;4.00;2.22;;;;;;;12.17;57.63;101403.31;4990923;28;20428;-69
2021/08/10 02:38:32;;;;;;;6.13;3.33;;;;;;;12.22;57.49;101406.63;4990054;28;21456;-71
2021/08/10 02:40:58;;;;;;;7.10;3.28;;;;;;;12.20;57.45;101395.34;5007226;28;20033;-68
2021/08/10 02:43:28;;;;;;;4.03;2.08;;;;;;;12.18;57.32;101394.53;4995579;28;22621;-69
2021/08/10 02:45:55;;;;;;;3.97;2.50;;;;;;;12.24;57.37;101390.81;4989998;28;20451;-68
2021/08/10 02:48:21;;;;;;;3.13;2.42;;;;;;;12.18;57.62;101393.66;5008482;28;20061;-68
2021/08/10 02:50:48;;;;;;;4.68;2.97;;;;;;;12.22;57.66;101390.03;4995676;28;20030;-69
2021/08/10 02:53:16;;;;;;;4.35;3.00;;;;;;;12.24;57.50;101383.81;4993898;28;20040;-69
2021/08/10 02:55:51;;;;;;;5.82;2.65;;;;;;;12.19;57.71;101383.13;4995539;28;20057;-70
2021/08/10 02:58:30;;;;;;;6.53;3.03;;;;;;;12.22;57.79;101383.03;4990811;28;20052;-71
2021/08/10 03:01:04;;;;;;;7.30;2.72;;;;;;;12.28;57.57;101377.53;4993145;28;20026;-68
2021/08/10 03:03:32;;;;;;;10.05;2.97;;;;;;;12.32;57.72;101382.69;4994034;28;20123;-69
2021/08/10 03:06:04;;;;;;;4.82;2.65;;;;;;;12.31;57.83;101383.56;4990637;28;20218;-69
2021/08/10 03:08:35;;;;;;;3.95;2.72;;;;;;;12.37;57.59;101385.97;4988720;28;20058;-70
2021/08/10 03:11:04;;;;;;;4.30;3.22;;;;;;;12.30;57.94;101385.34;4994401;28;20115;-70
2021/08/10 03:13:35;;;;;;;5.85;3.05;;;;;;;12.41;57.52;101387.56;4991100;28;20026;-70
2021/08/10 03:16:03;;;;;;;4.95;2.42;;;;;;;12.41;57.65;101384.94;5007787;28;20040;-70
2021/08/10 03:18:31;;;;;;;3.65;2.33;;;;;;;12.47;57.54;101389.94;4988500;28;20037;-69
2021/08/10 03:20:59;;;;;;;10.27;2.97;;;;;;;12.44;57.74;101385.63;5006009;28;20531;-69
2021/08/10 03:23:29;;;;;;;4.43;2.70;;;;;;;12.55;57.45;101385.22;4991850;28;20628;-68
2021/08/10 03:25:56;;;;;;;5.47;3.08;;;;;;;12.63;57.32;101388.41;4993815;28;20176;-69
2021/08/10 03:28:26;;;;;;;6.28;3.60;;;;;;;12.65;57.32;101397.06;5005298;28;20040;-69
2021/08/10 03:30:54;;;;;;;4.20;2.90;;;;;;;12.06;58.75;101392.38;4990621;28;20030;-70
2021/08/10 03:33:25;;;;;;;3.65;2.88;;;;;;;12.56;57.74;101394.81;5007248;28;20053;-68
2021/08/10 03:35:51;;;;;;;;;;;;;;;12.63;57.69;101398.88;4993144;28;20029;-69
2021/08/10 03:38:20;;;;;;;4.28;2.95;;;;;;;12.53;58.16;101392.28;4996035;28;20000;-69
2021/08/10 03:40:46;;;;;;;7.10;3.42;;;;;;;12.59;58.05;101397.28;4979406;28;20030;-71
2021/08/10 03:43:13;;;;;;;8.18;3.50;;;;;;;12.53;58.01;101389.66;4994882;28;20042;-70
2021/08/10 03:45:39;;;;;;;6.28;4.18;;;;;;;12.67;57.77;101405.72;4996007;28;20340;-68
2021/08/10 03:48:05;;;;;;;7.28;4.15;;;;;;;12.64;58.12;101402.34;4995333;28;20035;-68
2021/08/10 03:50:33;;;;;;;5.78;3.13;;;;;;;12.85;57.30;101408.53;4998522;28;20034;-69
2021/08/10 03:52:59;;;;;;;5.78;2.78;;;;;;;12.81;57.53;101401.72;4996654;28;20767;-69
2021/08/10 03:55:26;;;;;;;4.00;2.80;;;;;;;12.83;57.30;101399.88;4993034;28;20049;-69
2021/08/10 03:57:54;;;;;;;6.28;3.65;;;;;;;12.84;57.25;101391.09;5001645;28;20026;-69
2021/08/10 04:00:21;;;;;;;5.25;3.03;;;;;;;12.78;57.48;101392.19;4993894;28;20049;-69
2021/08/10 04:02:54;;;;;;;4.85;3.00;;;;;;;12.45;58.58;101402.25;4992386;28;20065;-68
2021/08/10 04:05:23;;;;;;;7.85;3.78;;;;;;;12.79;57.55;101393.06;4993737;28;20091;-69
2021/08/10 04:07:49;;;;;;;3.63;3.05;;;;;;;12.85;57.55;101401.53;4978654;28;20022;-68
2021/08/10 04:10:16;;;;;;;5.32;3.67;;;;;;;12.76;58.03;101401.03;5002027;28;20415;-70
2021/08/10 04:12:43;;;;;;;6.13;4.10;;;;;;;12.87;58.00;101401.44;4985698;28;20033;-69
2021/08/10 04:15:12;;;;;;;7.07;3.50;;;;;;;12.82;57.76;101399.00;5009707;28;20030;-69
2021/08/10 04:17:41;;;;;;;5.53;2.92;;;;;;;13.00;57.62;101391.28;4990967;28;20035;-70
2021/08/10 04:20:09;;;;;;;8.88;3.67;;;;;;;12.92;57.84;101385.53;4994392;28;20034;-69
2021/08/10 04:22:34;;;;;;;7.75;3.55;;;;;;;12.95;57.44;101367.03;4993181;28;20048;-71
2021/08/10 04:25:05;;;;;;;7.93;3.88;;;;;;;12.78;58.29;101373.84;4998350;28;20097;-72
2021/08/10 04:27:31;;;;;;;10.43;3.50;;;;;;;12.80;58.17;101373.75;4994752;28;20031;-69
2021/08/10 04:29:59;;;;;;;7.97;2.75;;;;;;;13.03;57.60;101368.41;4998549;28;20029;-69
2021/08/10 04:32:26;;;;;;;5.88;3.47;;;;;;;12.98;57.80;101359.00;4995814;28;20064;-69
2021/08/10 04:34:53;;;;;;;5.80;3.45;;;;;;;13.07;57.79;101354.25;4994618;28;20034;-70
2021/08/10 04:37:20;;;;;;;9.95;4.35;;;;;;;12.94;58.25;101370.56;4997288;28;20034;-68
2021/08/10 04:39:47;;;;;;;8.05;3.63;;;;;;;13.17;57.53;101359.94;4993361;28;20639;-68
2021/08/10 04:42:21;;;;;;;5.90;2.92;;;;;;;13.05;57.15;101363.97;4997770;28;20519;-69
2021/08/10 04:44:46;;;;;;;5.75;3.78;;;;;;;13.16;57.09;101368.75;4987683;28;20130;-69
2021/08/10 04:47:12;;;;;;;5.70;3.92;;;;;;;13.24;56.76;101373.66;4993606;28;20072;-70
2021/08/10 04:49:37;;;;;;;4.50;2.70;;;;;;;13.29;56.95;101382.16;4996184;28;20061;-69
2021/08/10 04:52:03;;;;;;;4.38;3.13;;;;;;;13.33;56.86;101378.50;4993938;28;20487;-69
2021/08/10 04:54:29;;;;;;;8.88;4.53;;;;;;;12.94;57.72;101376.69;4992082;28;20034;-68
2021/08/10 04:56:54;;;;;;;7.68;3.47;;;;;;;13.30;57.24;101373.41;5010701;28;20120;-70
2021/08/10 04:59:20;;;;;;;5.68;3.90;;;;;;;13.30;56.98;101373.41;4992461;28;20438;-69
2021/08/10 05:01:45;;;;;;;6.60;3.40;;;;;;;13.29;56.81;101376.91;4979013;28;20121;-70
2021/08/10 05:04:11;;;;;;;6.30;3.92;;;;;;;13.29;56.69;101377.81;4992449;28;20155;-69
2021/08/10 05:06:40;;;;;;;8.82;3.55;;;;;;;13.19;57.00;101384.34;4994414;28;20030;-70
2021/08/10 05:09:08;;;;;;;5.97;3.88;;;;;;;13.17;56.81;101377.47;4993796;28;20041;-69
2021/08/10 05:11:35;;;;;;;7.72;3.72;;;;;;;13.21;56.84;101379.06;4992907;28;20030;-70
2021/08/10 05:14:02;;;;;;;5.22;3.17;;;;;;;13.39;56.78;101382.66;4993509;28;20029;-68
2021/08/10 05:16:27;;;;;;;5.03;2.63;;;;;;;13.08;57.34;101379.56;4993558;28;20034;-69
2021/08/10 05:18:53;;;;;;;6.20;4.00;;;;;;;13.35;56.38;101379.28;4994402;28;20030;-69
2021/08/10 05:21:19;;;;;;;6.97;3.78;;;;;;;13.41;56.40;101384.28;4990968;28;20030;-69
2021/08/10 05:23:50;;;;;;;6.38;3.28;;;;;;;13.40;56.30;101381.72;5002400;28;20038;-69
2021/08/10 05:26:17;;;;;;;7.25;3.03;;;;;;;13.49;55.94;101376.91;4988063;28;20107;-69
2021/08/10 05:28:44;;;;;;;4.63;3.47;;;;;;;13.58;55.66;101372.19;4992905;28;20250;-68
2021/08/10 05:31:10;;;;;;;9.40;3.40;;;;;;;13.58;55.60;101369.56;4993608;28;20037;-69
2021/08/10 05:33:36;;;;;;;5.97;3.13;;;;;;;13.72;55.47;101375.91;4981508;28;20049;-69
2021/08/10 05:36:03;;;;;;;5.07;2.72;;;;;;;13.81;55.76;101374.66;4992363;28;20037;-69
2021/08/10 05:38:30;;;;;;;8.25;4.03;;;;;;;13.68;55.49;101374.34;5010287;28;20409;-69
2021/08/10 05:40:55;;;;;;;5.05;3.03;;;;;;;14.01;55.33;101380.75;4995478;28;20560;-69
2021/08/10 05:43:20;;;;;;;8.48;3.42;;;;;;;13.84;55.07;101371.88;4975725;28;20053;-69
2021/08/10 05:45:48;;;;;;;5.65;3.22;;;;;;;14.07;55.38;101380.47;4991447;28;20030;-69
2021/08/10 05:48:17;;;;;;;12.43;3.95;;;;;;;14.38;54.46;101382.50;4993050;28;20145;-69
2021/08/10 05:50:46;;;;;;;9.32;4.05;;;;;;;15.00;52.36;101387.41;4979878;28;20062;-69
2021/08/10 05:53:13;;;;;;;4.43;2.70;;;;;;;17.05;48.96;101385.06;5001698;28;20030;-69
2021/08/10 05:55:39;;;;;;;9.27;2.95;;;;;;;16.98;47.51;101387.19;4994327;28;20038;-69
2021/08/10 05:58:05;;;;;;;3.75;2.63;;;;;;;17.92;46.60;101385.00;4994587;28;20029;-68
2021/08/10 06:00:31;;;;;;;7.45;2.53;;;;;;;17.44;46.48;101392.34;4991249;28;20686;-68
2021/08/10 06:03:06;;;;;;;6.75;2.65;;;;;;;16.12;49.94;101389.44;4986007;28;20173;-68
2021/08/10 06:05:31;;;;;;;3.50;2.72;;;;;;;16.12;50.37;101389.44;4990527;28;20120;-70
2021/08/10 06:07:58;;;;;;;5.85;2.75;;;;;;;16.46;48.99;101387.53;4994086;28;20569;-70
2021/08/10 06:10:31;;;;;;;9.55;3.38;;;;;;;16.02;50.44;101388.22;4990437;28;20034;-70
2021/08/10 06:12:57;;;;;;;4.80;2.83;;;;;;;16.51;49.73;101393.41;4991967;28;20417;-70
2021/08/10 06:15:22;;;;;;;3.45;2.42;;;;;;;18.71;45.25;101386.09;4990170;28;20555;-69
2021/08/10 06:17:50;;;;;;;7.13;2.53;;;;;;;19.43;41.86;101377.69;4990999;28;20041;-69
2021/08/10 06:20:15;;;;;;;5.50;2.83;;;;;;;20.52;40.22;101380.53;5001075;28;20033;-70
2021/08/10 06:22:41;;;;;;;4.78;2.70;;;;;;;21.76;39.10;101381.63;4990597;28;20026;-69
2021/08/10 06:25:09;;;;;;;6.10;2.30;;;;;;;21.83;36.40;101381.16;4993337;28;20546;-70
2021/08/10 06:27:39;;;;;;;3.92;2.42;;;;;;;20.04;40.25;101386.66;4989421;28;20033;-69
2021/08/10 06:30:06;;;;;;;5.32;2.92;;;;;;;17.39;46.79;101397.06;4979048;28;20030;-70
2021/08/10 06:32:32;;;;;;;6.53;2.53;;;;;;;17.14;48.03;101402.97;4983159;28;20037;-70
2021/08/10 06:34:58;;;;;;;8.50;2.78;;;;;;;16.07;50.26;101402.88;4991584;28;20117;-69
2021/08/10 06:37:28;;;;;;;9.50;2.88;;;;;;;15.24;51.96;101401.09;4977908;28;20037;-70
2021/08/10 06:39:54;;;;;;;10.30;3.80;;;;;;;15.18;52.62;101408.38;4977996;28;20030;-69
2021/08/10 06:42:21;;;;;;;9.35;3.55;;;;;;;14.51;54.64;101414.34;4994819;28;20125;-70
2021/08/10 06:44:55;;;;;;;9.15;3.88;;;;;;;14.80;54.31;101407.66;4999659;28;20038;-69
2021/08/10 06:47:22;;;;;;;14.38;4.45;;;;;;;14.19;55.86;101419.34;4979101;28;20026;-69
2021/08/10 06:49:47;;;;;;;9.45;4.43;;;;;;;14.11;56.39;101421.44;4999095;28;20037;-71
2021/08/10 06:52:13;;;;;;;6.95;4.53;;;;;;;14.76;54.72;101422.75;4993963;28;20038;-70
2021/08/10 06:54:38;;;;;;;8.63;4.68;;;;;;;15.38;54.33;101417.06;4974544;28;20023;-69
2021/08/10 06:57:06;;;;;;;10.10;4.25;;;;;;;15.22;53.79;101413.53;4991536;28;20069;-68
2021/08/10 06:59:34;;;;;;;7.72;4.43;;;;;;;15.54;53.08;101414.47;4990302;28;20180;-70
2021/08/10 07:02:06;;;;;;;9.98;4.30;;;;;;;15.16;53.06;101415.47;4993322;28;20262;-68
2021/08/10 07:04:33;;;;;;;11.80;4.97;;;;;;;15.95;51.65;101428.09;4992742;28;20052;-69
2021/08/10 07:07:01;;;;;;;5.78;4.35;;;;;;;16.36;50.47;101416.22;4990770;28;20327;-69
2021/08/10 07:09:27;;;;;;;9.00;4.32;;;;;;;16.35;50.68;101418.03;4979670;28;20499;-70
2021/08/10 07:11:53;;;;;;;7.80;4.93;;;;;;;16.54;50.94;101417.81;4980501;28;20412;-69
2021/08/10 07:14:19;;;;;;;9.10;4.38;;;;;;;16.58;50.66;101408.81;4993035;28;20030;-68
2021/08/10 07:16:46;;;;;;;7.13;4.88;;;;;;;15.88;52.70;101418.78;4983924;28;20407;-69
2021/08/10 07:19:13;;;;;;;8.80;6.15;;;;;;;16.08;51.07;101415.09;5001126;28;20495;-70
2021/08/10 07:21:42;;;;;;;6.57;4.90;;;;;;;15.58;51.91;101416.88;4995898;28;20208;-70
2021/08/10 07:24:15;;;;;;;9.00;4.97;;;;;;;14.98;53.62;101426.94;4998090;28;20188;-70
2021/08/10 07:26:43;;;;;;;9.15;5.50;;;;;;;15.67;52.92;101419.97;4998453;28;20094;-70
2021/08/10 07:29:08;;;;;;;7.70;6.15;;;;;;;15.63;53.45;101419.25;5009889;28;20083;-70
2021/08/10 07:31:34;;;;;;;11.02;5.68;;;;;;;14.97;54.44;101425.25;5001699;28;20129;-69
2021/08/10 07:34:06;;;;;;;7.25;6.18;;;;;;;14.41;55.90;101426.22;4999144;28;20080;-70
2021/08/10 07:36:34;;;;;;;11.88;6.60;;;;;;;14.41;55.81;101426.22;5003129;28;20068;-68
2021/08/10 07:39:00;;;;;;;11.75;5.63;;;;;;;14.80;55.44;101419.97;4982073;28;20483;-69
2021/08/10 07:41:25;;;;;;;8.23;5.55;;;;;;;15.12;55.17;101434.16;4995849;28;20026;-68
2021/08/10 07:43:51;;;;;;;8.75;5.65;;;;;;;15.22;54.44;101437.22;4996441;28;20126;-68
2021/08/10 07:46:17;;;;;;;8.90;6.20;;;;;;;15.33;54.32;101437.53;4996295;28;20089;-71
2021/08/10 07:48:45;;;;;;;9.70;5.65;;;;;;;15.14;54.80;101437.56;5004718;28;20060;-69
2021/08/10 07:51:11;;;;;;;9.77;5.68;;;;;;;15.44;54.49;101434.31;5010240;28;20500;-70
2021/08/10 07:53:37;;;;;;;15.00;7.25;;;;;;;15.61;53.66;101438.72;5011134;28;20113;-70
2021/08/10 07:56:04;;;;;;;7.30;4.88;;;;;;;15.54;54.53;101444.31;4979976;28;20133;-69
2021/08/10 07:58:29;;;;;;;6.25;4.85;;;;;;;15.08;55.50;101451.91;4994845;28;20345;-69
2021/08/10 08:00:55;;;;;;;7.45;4.88;;;;;;;14.48;56.65;101456.59;4993833;28;20037;-69
2021/08/10 08:03:22;;;;;;;7.28;4.50;;;;;;;14.99;55.83;101454.97;4995395;28;20515;-70
2021/08/10 08:05:48;;;;;;;7.10;4.70;;;;;;;15.06;55.33;101452.88;4996714;28;20030;-69
2021/08/10 08:08:15;;;;;;;10.52;5.38;;;;;;;15.31;55.33;101452.56;4999266;28;20030;-69
2021/08/10 08:10:42;;;;;;;6.30;5.13;;;;;;;15.69;53.71;101441.81;4980425;28;20491;-69
2021/08/10 08:13:08;;;;;;;7.07;5.00;;;;;;;15.94;52.87;101449.25;4996658;28;20048;-70
2021/08/10 08:15:34;;;;;;;11.50;5.03;;;;;;;15.86;52.86;101444.38;4996067;28;20034;-68
2021/08/10 08:18:03;;;;;;;9.45;5.30;;;;;;;15.69;53.45;101433.91;4992527;28;20034;-69
2021/08/10 08:20:29;;;;;;;9.38;5.50;;;;;;;16.06;52.90;101430.16;4997351;28;20085;-70
2021/08/10 08:22:55;;;;;;;11.13;5.93;;;;;;;15.26;53.56;101441.38;4991214;28;20033;-69
2021/08/10 08:25:22;;;;;;;6.68;5.35;;;;;;;16.21;52.91;101431.13;4995358;28;20034;-70
2021/08/10 08:27:48;;;;;;;9.82;5.85;;;;;;;16.51;51.85;101427.69;4992868;28;20510;-69
2021/08/10 08:30:15;;;;;;;10.55;5.10;;;;;;;16.34;51.53;101416.31;4997996;28;20034;-69
2021/08/10 08:32:44;;;;;;;11.20;4.97;;;;;;;17.18;51.61;101420.31;4978907;28;20030;-69
2021/08/10 08:35:09;;;;;;;8.15;4.38;;;;;;;18.41;48.23;101416.28;4984799;28;20042;-70
2021/08/10 08:37:35;;;;;;;6.22;4.10;;;;;;;18.61;45.46;101408.84;4991257;28;20133;-71
2021/08/10 08:40:04;;;;;;;5.07;3.72;;;;;;;19.07;44.87;101419.03;4994910;28;20536;-69
2021/08/10 08:42:30;;;;;;;5.57;3.33;;;;;;;18.73;45.93;101417.78;4992335;28;20543;-69
2021/08/10 08:44:57;;;;;;;9.35;4.07;;;;;;;19.02;44.09;101414.03;4993271;28;20035;-70
2021/08/10 08:47:23;;;;;;;7.80;3.63;;;;;;;19.65;43.93;101415.03;4992648;28;20390;-70
2021/08/10 08:49:56;;;;;;;3.90;2.90;;;;;;;19.35;44.69;101420.66;4980580;28;20465;-70
2021/08/10 08:52:23;;;;;;;6.82;3.33;;;;;;;19.29;42.19;101431.66;4994171;28;20033;-71
2021/08/10 08:54:50;;;;;;;5.57;3.53;;;;;;;19.43;42.67;101420.97;5008189;28;20034;-70
2021/08/10 08:57:15;;;;;;;4.95;3.10;;;;;;;19.87;41.57;101429.44;4995910;28;20069;-69
2021/08/10 08:59:42;;;;;;;6.13;3.22;;;;;;;19.54;44.34;101422.88;4999508;28;20494;-70
2021/08/10 09:02:17;;;;;;;9.75;3.47;;;;;;;18.19;45.92;101421.25;4991470;28;20065;-69
2021/08/10 09:04:44;;;;;;;4.32;3.50;;;;;;;17.78;49.00;101414.97;4993910;28;20034;-70
2021/08/10 09:07:11;;;;;;;4.25;3.85;;;;;;;17.30;48.93;101413.47;4980363;28;20033;-70
2021/08/10 09:09:37;;;;;;;5.97;4.10;;;;;;;19.65;44.83;101409.75;5001568;22;20513;-67
2021/08/10 09:12:13;;;;;;;7.00;3.33;;;;;;;21.39;39.64;101409.41;5006048;28;20092;-71
2021/08/10 09:14:53;;;;;;;4.35;3.25;;;;;;;20.40;41.14;101416.81;5004522;28;20307;-68
2021/08/10 09:17:23;;;;;;;5.18;2.55;;;;;;;20.50;41.35;101417.81;5006005;28;20780;-68
2021/08/10 09:20:01;;;;;;;5.95;2.67;;;;;;;21.29;40.04;101415.44;5006715;28;20384;-68
2021/08/10 09:22:33;;;;;;;7.15;2.58;;;;;;;20.96;38.37;101416.22;5005817;28;20033;-66
2021/08/10 09:25:16;;;;;;;4.75;2.40;;;;;;;21.33;40.08;101410.72;5005671;28;20033;-68
2021/08/10 09:27:43;;;;;;;6.00;2.58;;;;;;;21.43;40.11;101408.22;5002118;28;20026;-69
2021/08/10 09:30:17;;;;;;;4.82;2.38;;;;;;;20.96;38.86;101407.41;5009907;28;20387;-68
2021/08/10 09:32:52;;;;;;;3.20;1.70;;;;;;;20.68;39.44;101404.97;4993065;28;20180;-68
2021/08/10 09:35:22;;;;;;;7.15;1.75;;;;;;;20.37;40.94;101406.38;5022126;28;20041;-67
2021/08/10 09:38:04;;;;;;;4.78;2.13;;;;;;;21.19;38.40;101403.81;5005351;28;20069;-68
2021/08/10 09:40:32;;;;;;;5.22;2.22;;;;;;;20.31;39.75;101407.72;5005400;28;20060;-66
2021/08/10 09:43:18;;;;;;;;;;;;;;;20.41;40.12;101407.88;5007876;28;20057;-68
2021/08/10 09:45:44;;;;;;;3.38;1.75;;;;;;;19.84;42.16;101409.31;4990651;28;19987;-68
2021/08/10 09:48:16;;;;;;;8.13;1.95;;;;;;;20.72;42.79;101410.91;5005722;28;20038;-68
2021/08/10 09:50:42;;;;;;;3.05;1.85;;;;;;;21.60;37.49;101405.13;5024685;28;20041;-68
2021/08/10 09:53:17;;;;;;;4.07;2.10;;;;;;;22.46;37.06;101402.69;5008184;28;20116;-68
2021/08/10 09:55:55;;;;;;;2.33;1.30;;;;;;;21.88;38.22;101400.25;5008894;28;20033;-66
2021/08/10 09:58:21;;;;;;;2.83;1.17;;;;;;;21.23;38.70;101402.63;5006985;28;20376;-66
2021/08/10 10:00:49;;;;;;;2.05;0.80;;;;;;;20.78;39.37;101404.31;4990031;28;20040;-67
2021/08/10 10:03:18;;;;;;;2.35;0.73;;;;;;;20.52;39.36;101410.56;5005093;28;20029;-66
2021/08/10 10:05:47;;;;;;;1.77;0.73;;;;;;;19.96;38.49;101401.41;4994652;28;20049;-68
2021/08/10 10:08:24;;;;;;;3.20;0.80;;;;;;;18.85;41.96;101409.00;4989959;28;20044;-69
2021/08/10 10:10:53;;;;;;;1.77;1.00;;;;;;;19.19;41.59;101412.03;5006397;28;20040;-69
2021/08/10 10:13:20;;;;;;;2.65;1.05;;;;;;;19.25;41.15;101409.81;5004286;28;20594;-66
2021/08/10 10:15:47;;;;;;;2.28;0.82;;;;;;;20.66;38.98;101408.69;5006036;28;20022;-67
2021/08/10 10:18:13;;;;;;;2.80;0.70;;;;;;;20.64;37.40;101400.00;5010723;28;20033;-67
2021/08/10 10:20:44;;;;;;;1.92;0.73;;;;;;;20.47;38.69;101391.50;5009078;28;20094;-68
2021/08/10 10:23:16;;;;;;;1.27;0.50;;;;;;;21.09;37.68;101392.22;5007377;28;20070;-67
2021/08/10 10:25:42;;;;;;;3.08;0.77;;;;;;;20.58;37.12;101403.97;5008817;28;20125;-67
2021/08/10 10:28:08;;;;;;;4.05;0.77;;;;;;;19.76;39.13;101393.06;5006436;28;20112;-67
2021/08/10 10:30:34;;;;;;;1.67;0.50;;;;;;;19.67;41.42;101410.47;5007357;28;20056;-68
2021/08/10 10:33:00;;;;;;;2.70;0.60;;;;;;;19.47;40.98;101405.69;5007936;28;20029;-65
2021/08/10 10:35:25;;;;;;;5.47;0.68;;;;;;;19.00;42.23;101401.84;5007354;28;20071;-69
2021/08/10 10:37:53;;;;;;;1.52;0.55;;;;;;;19.05;41.55;101410.34;5007443;28;20503;-68
2021/08/10 10:40:20;;;;;;;2.92;0.40;;;;;;;19.49;42.76;101409.09;5004384;28;20041;-69
2021/08/10 10:42:49;;;;;;;2.85;0.60;;;;;;;20.53;39.84;101412.28;5008477;28;20490;-68
2021/08/10 10:45:38;;;;;;;2.67;0.40;;;;;;;20.62;37.84;101415.19;5007082;28;20037;-66
2021/08/10 10:48:22;;;;;;;1.00;0.43;;;;;;;21.08;36.07;101422.41;5008004;28;20026;-67
2021/08/10 10:51:13;;;;;;;1.95;0.40;;;;;;;21.47;36.95;101420.31;5008410;28;20090;-67
2021/08/10 10:53:44;;;;;;;0.88;0.30;;;;;;;21.61;35.85;101413.94;5012190;28;20128;-67
2021/08/10 10:56:24;;;;;;;1.15;0.50;;;;;;;21.46;35.17;101415.94;5006080;28;20037;-67
2021/08/10 10:58:50;;;;;;;3.17;0.57;;;;;;;22.55;35.45;101421.41;5007597;28;20075;-69
2021/08/10 11:01:30;;;;;;;1.42;0.52;;;;;;;23.00;33.12;101410.53;5005936;28;20053;-68
2021/08/10 11:04:06;;;;;;;2.17;0.35;;;;;;;23.62;32.76;101415.97;4996544;28;20030;-68
2021/08/10 11:06:33;;;;;;;2.08;0.77;;;;;;;21.61;33.70;101417.44;5005977;28;20659;-67
2021/08/10 11:09:00;;;;;;;0.85;0.30;;;;;;;22.46;34.02;101421.31;5006847;28;20037;-66
2021/08/10 11:11:49;;;;;;;3.22;0.73;;;;;;;23.23;31.94;101407.75;5003690;28;20031;-66
2021/08/10 11:14:37;;;;;;;1.98;0.40;;;;;;;24.20;31.21;101409.97;5003603;28;20030;-66
2021/08/10 11:17:11;;;;;;;0.93;0.30;;;;;;;24.36;31.81;101404.94;5006614;28;20033;-67
2021/08/10 11:19:39;;;;;;;0.73;0.20;;;;;;;24.23;31.39;101404.34;5005590;28;20068;-67
2021/08/10 11:22:17;;;;;;;3.78;0.45;;;;;;;23.69;31.69;101410.94;5007788;28;20041;-67
2021/08/10 11:24:46;;;;;;;2.83;0.50;;;;;;;22.70;33.02;101416.66;5004923;28;20265;-66
2021/08/10 11:27:37;;;;;;;2.97;0.40;;;;;;;22.22;33.17;101411.69;5005817;28;20108;-66
2021/08/10 11:30:06;;;;;;;2.35;0.40;;;;;;;22.12;34.42;101411.59;5007252;28;20045;-67
2021/08/10 11:32:45;;;;;;;2.42;0.40;;;;;;;21.29;36.02;101417.25;5007060;28;20034;-66